Time;durP1;ratioP1;P1;durP2;ratioP2;P2;SDS_P1;SDS_P2;PMS_P1;PMS_P2;Temp;Humidity;BMP_temperature;BMP_pressure;BME280_temperature;BME280_humidity;BME280_pressure;Samples;Min_cycle;Max_cycle;Signal;HPM_P1;HPM_P2
2022/04/07 00:00:01;;;;;;;21.90;8.57;;;;;;;8.09;87.98;97486.66;4999515;28;20489;-52
2022/04/07 00:02:26;;;;;;;16.33;7.78;;;;;;;8.03;88.11;97479.72;4993755;28;20045;-54
2022/04/07 00:04:51;;;;;;;17.02;7.75;;;;;;;8.11;87.80;97484.50;4989716;28;20026;-52
2022/04/07 00:07:17;;;;;;;13.35;7.18;;;;;;;8.17;87.70;97486.09;4990442;28;20046;-55
2022/04/07 00:09:42;;;;;;;12.00;7.57;;;;;;;8.03;88.45;97482.38;4990622;28;20377;-53
2022/04/07 00:12:08;;;;;;;18.15;8.18;;;;;;;7.91;89.42;97472.78;4990474;28;20484;-52
2022/04/07 00:14:34;;;;;;;17.70;7.95;;;;;;;7.86;90.12;97474.66;4999870;28;20376;-50
2022/04/07 00:16:59;;;;;;;20.60;8.57;;;;;;;7.93;90.25;97475.19;4985180;28;20433;-50
2022/04/07 00:19:25;;;;;;;18.90;8.73;;;;;;;7.94;91.29;97466.91;4991640;28;20037;-51
2022/04/07 00:21:50;;;;;;;17.08;8.25;;;;;;;7.87;92.58;97463.72;4999834;28;20065;-52
2022/04/07 00:24:16;;;;;;;20.08;8.13;;;;;;;7.86;92.87;97453.31;4997152;28;20030;-53
2022/04/07 00:26:41;;;;;;;17.73;8.15;;;;;;;7.87;92.51;97458.38;4987488;28;20046;-52
2022/04/07 00:29:07;;;;;;;18.10;9.43;;;;;;;7.87;92.53;97447.72;4997982;28;20103;-52
2022/04/07 00:31:39;;;;;;;14.30;7.40;;;;;;;7.88;92.57;97451.97;4993443;28;20423;-54
2022/04/07 00:34:06;;;;;;;10.48;5.40;;;;;;;7.94;92.01;97445.56;5000344;28;20044;-53
2022/04/07 00:36:31;;;;;;;17.45;6.57;;;;;;;7.90;92.23;97435.72;4991009;28;20098;-51
2022/04/07 00:38:56;;;;;;;18.23;7.95;;;;;;;7.91;92.36;97431.97;4989751;28;20506;-51
2022/04/07 00:41:22;;;;;;;16.63;8.73;;;;;;;7.88;92.50;97425.28;4994864;28;20058;-52
2022/04/07 00:43:51;;;;;;;16.60;8.40;;;;;;;7.91;92.10;97422.13;4996273;28;20026;-52
2022/04/07 00:46:16;;;;;;;15.43;8.25;;;;;;;7.91;92.21;97424.78;4994747;28;20149;-54
2022/04/07 00:48:42;;;;;;;17.95;7.25;;;;;;;7.90;92.79;97419.69;4992591;28;20104;-51
2022/04/07 00:51:07;;;;;;;14.70;7.95;;;;;;;7.92;92.59;97405.03;4989388;28;20414;-52
2022/04/07 00:53:33;;;;;;;17.00;7.75;;;;;;;7.94;92.79;97394.09;4991659;28;20034;-52
2022/04/07 00:56:00;;;;;;;15.65;6.85;;;;;;;7.92;93.14;97397.03;4999583;28;20041;-53
2022/04/07 00:58:25;;;;;;;19.42;6.65;;;;;;;7.93;93.10;97401.28;4988364;28;20030;-52
2022/04/07 01:00:51;;;;;;;17.17;7.88;;;;;;;7.90;93.22;97396.50;4976938;28;20042;-50
2022/04/07 01:03:16;;;;;;;11.68;6.45;;;;;;;7.91;93.97;97389.28;4994008;28;20037;-51
2022/04/07 01:05:42;;;;;;;12.20;6.47;;;;;;;7.86;94.34;97384.78;4988967;28;20500;-52
2022/04/07 01:08:08;;;;;;;14.70;7.22;;;;;;;7.86;94.52;97398.13;4989907;28;20034;-51
2022/04/07 01:10:33;;;;;;;13.27;7.35;;;;;;;7.89;94.60;97378.91;4996320;28;20146;-53
2022/04/07 01:12:59;;;;;;;12.85;7.28;;;;;;;7.90;94.60;97377.81;4977068;28;20034;-52
2022/04/07 01:15:24;;;;;;;12.45;6.90;;;;;;;7.92;94.71;97380.22;4988362;28;20052;-53
2022/04/07 01:17:49;;;;;;;14.32;6.90;;;;;;;7.94;95.24;97367.44;4994014;28;20026;-53
2022/04/07 01:20:15;;;;;;;15.68;6.63;;;;;;;8.03;94.16;97375.66;5000227;28;20037;-53
2022/04/07 01:22:41;;;;;;;11.63;6.95;;;;;;;7.99;94.57;97376.22;4995602;28;20038;-54
2022/04/07 01:25:07;;;;;;;14.93;7.07;;;;;;;7.94;95.72;97378.88;4993133;28;20088;-51
2022/04/07 01:27:32;;;;;;;16.30;6.90;;;;;;;7.93;96.13;97358.59;4989127;28;20872;-53
2022/04/07 01:30:05;;;;;;;14.00;6.60;;;;;;;7.89;96.54;97359.44;4993220;28;20125;-53
2022/04/07 01:32:36;;;;;;;9.77;5.72;;;;;;;7.91;95.95;97352.75;4987642;28;20057;-53
2022/04/07 01:35:02;;;;;;;11.52;6.30;;;;;;;7.90;95.97;97355.69;4996426;28;20029;-53
2022/04/07 01:37:28;;;;;;;9.38;5.63;;;;;;;7.91;95.85;97351.94;4995591;28;20030;-54
2022/04/07 01:39:53;;;;;;;14.02;6.25;;;;;;;7.87;95.64;97351.69;4992376;28;20049;-53
2022/04/07 01:42:19;;;;;;;10.43;5.22;;;;;;;7.96;95.15;97360.75;4989911;28;20485;-51
2022/04/07 01:44:49;;;;;;;12.70;5.88;;;;;;;7.94;94.87;97349.53;4987481;28;20041;-52
2022/04/07 01:47:14;;;;;;;9.40;4.82;;;;;;;7.96;94.73;97342.06;4991482;28;20042;-52
2022/04/07 01:49:40;;;;;;;12.60;5.55;;;;;;;7.95;94.95;97353.78;4987302;28;20353;-54
2022/04/07 01:52:07;;;;;;;17.15;5.75;;;;;;;7.92;95.55;97354.34;4988478;28;20042;-51
2022/04/07 01:54:32;;;;;;;10.60;6.72;;;;;;;7.92;96.35;97357.00;5001176;28;20232;-52
2022/04/07 01:56:58;;;;;;;8.85;5.25;;;;;;;7.89;97.23;97354.09;4992752;28;20093;-53
2022/04/07 01:59:24;;;;;;;11.93;6.13;;;;;;;7.84;98.17;97354.91;4993464;28;20365;-53
2022/04/07 02:01:49;;;;;;;11.00;5.88;;;;;;;7.78;99.26;97358.63;4988937;28;20050;-51
2022/04/07 02:04:15;;;;;;;14.20;5.57;;;;;;;7.76;99.45;97363.44;4989172;28;20045;-51
2022/04/07 02:06:40;;;;;;;17.23;5.50;;;;;;;7.74;99.98;97362.94;4993284;28;20425;-51
2022/04/07 02:09:05;;;;;;;12.30;5.63;;;;;;;7.69;100.00;97363.72;4994226;28;20034;-51
2022/04/07 02:11:32;;;;;;;10.40;4.97;;;;;;;7.68;100.00;97353.31;4994448;28;20050;-53
2022/04/07 02:13:58;;;;;;;9.70;5.40;;;;;;;7.58;100.00;97354.13;4995247;28;20437;-52
2022/04/07 02:16:23;;;;;;;8.80;5.13;;;;;;;7.57;100.00;97350.66;4993835;28;20038;-53
2022/04/07 02:18:48;;;;;;;10.20;5.55;;;;;;;7.54;100.00;97337.09;4991457;28;20386;-54
2022/04/07 02:21:14;;;;;;;12.07;5.20;;;;;;;7.63;100.00;97318.66;4994033;28;20041;-52
2022/04/07 02:23:42;;;;;;;10.85;5.03;;;;;;;7.60;100.00;97312.00;4999364;28;20277;-53
2022/04/07 02:26:11;;;;;;;8.45;4.40;;;;;;;7.57;100.00;97308.00;4994905;28;20407;-53
2022/04/07 02:28:37;;;;;;;9.05;4.72;;;;;;;7.54;100.00;97305.09;4994873;28;20042;-54
2022/04/07 02:31:02;;;;;;;11.18;4.32;;;;;;;7.52;100.00;97309.91;4997873;28;20082;-53
2022/04/07 02:33:30;;;;;;;10.70;4.70;;;;;;;7.60;100.00;97313.88;4993033;28;20054;-54
2022/04/07 02:35:56;;;;;;;9.27;4.60;;;;;;;7.52;100.00;97292.03;4982011;28;20133;-54
2022/04/07 02:38:21;;;;;;;8.93;4.45;;;;;;;7.51;100.00;97298.44;4977089;28;20184;-52
2022/04/07 02:40:47;;;;;;;8.13;4.22;;;;;;;7.52;100.00;97300.03;4974037;28;20046;-52
2022/04/07 02:43:12;;;;;;;7.60;4.57;;;;;;;7.47;100.00;97293.91;4988840;28;20023;-55
2022/04/07 02:45:37;;;;;;;11.88;4.55;;;;;;;7.44;100.00;97279.25;4992902;28;20523;-54
2022/04/07 02:48:03;;;;;;;6.00;4.20;;;;;;;7.43;100.00;97268.84;4994053;28;20048;-53
2022/04/07 02:50:29;;;;;;;11.13;4.65;;;;;;;7.49;100.00;97276.59;4987649;28;20042;-54
2022/04/07 02:52:54;;;;;;;9.13;3.88;;;;;;;7.55;100.00;97256.81;4992588;28;20025;-54
2022/04/07 02:55:19;;;;;;;7.15;4.30;;;;;;;7.50;100.00;97248.84;4990655;28;20026;-51
2022/04/07 02:57:45;;;;;;;9.25;4.03;;;;;;;7.53;100.00;97224.31;4993965;28;20026;-53
2022/04/07 03:00:11;;;;;;;7.60;4.40;;;;;;;7.54;100.00;97231.25;4992041;28;20053;-52
2022/04/07 03:02:36;;;;;;;6.35;3.80;;;;;;;7.51;100.00;97234.47;4988081;28;20089;-55
2022/04/07 03:05:02;;;;;;;7.05;3.58;;;;;;;7.48;100.00;97242.19;4993980;28;20354;-54
2022/04/07 03:07:27;;;;;;;7.82;3.78;;;;;;;7.49;100.00;97244.59;4994455;28;20025;-54
2022/04/07 03:09:53;;;;;;;5.97;3.92;;;;;;;7.46;100.00;97233.66;4992670;28;20520;-54
2022/04/07 03:12:18;;;;;;;6.97;3.92;;;;;;;7.48;100.00;97227.00;4994337;28;20050;-55
2022/04/07 03:14:44;;;;;;;5.93;3.47;;;;;;;7.47;100.00;97214.75;4994267;28;20034;-54
2022/04/07 03:17:09;;;;;;;7.03;3.97;;;;;;;7.50;100.00;97214.19;5000636;28;20037;-54
2022/04/07 03:19:35;;;;;;;7.57;4.03;;;;;;;7.55;100.00;97219.50;4992574;28;20027;-53
2022/04/07 03:22:00;;;;;;;6.47;3.90;;;;;;;7.54;100.00;97212.59;4991426;28;20038;-54
2022/04/07 03:24:26;;;;;;;8.93;4.53;;;;;;;7.47;100.00;97204.06;4988630;28;20451;-53
2022/04/07 03:26:52;;;;;;;6.68;3.92;;;;;;;7.45;100.00;97198.22;4991320;28;20046;-53
2022/04/07 03:29:19;;;;;;;6.68;3.83;;;;;;;7.41;100.00;97202.47;4998416;28;20046;-51
2022/04/07 03:31:45;;;;;;;7.53;4.30;;;;;;;7.43;100.00;97197.69;4995879;28;20521;-51
2022/04/07 03:34:10;;;;;;;7.43;4.40;;;;;;;7.44;100.00;97193.97;4997499;28;20026;-51
2022/04/07 03:36:36;;;;;;;7.07;4.38;;;;;;;7.39;100.00;97190.50;4993628;28;20042;-51
2022/04/07 03:39:02;;;;;;;5.63;3.25;;;;;;;7.41;100.00;97199.03;5001752;28;20545;-52
2022/04/07 03:41:28;;;;;;;8.55;5.32;;;;;;;7.41;100.00;97194.50;4992052;28;20045;-54
2022/04/07 03:43:55;;;;;;;6.60;4.90;;;;;;;7.40;100.00;97192.91;4993294;28;20042;-52
2022/04/07 03:46:21;;;;;;;9.25;4.93;;;;;;;7.43;100.00;97189.69;4999791;28;20276;-52
2022/04/07 03:48:50;;;;;;;6.13;3.85;;;;;;;7.43;100.00;97197.69;4995412;28;20026;-51
2022/04/07 03:51:18;;;;;;;7.43;4.88;;;;;;;7.43;100.00;97197.69;5000049;28;20159;-54
2022/04/07 03:53:44;;;;;;;9.20;5.38;;;;;;;7.47;100.00;97192.63;4995492;28;20038;-52
2022/04/07 03:56:10;;;;;;;7.93;4.90;;;;;;;7.47;100.00;97192.63;4990443;28;20122;-55
2022/04/07 03:58:36;;;;;;;12.10;4.60;;;;;;;7.50;100.00;97184.06;4996434;28;20034;-52
2022/04/07 04:01:02;;;;;;;8.52;4.75;;;;;;;7.50;100.00;97178.75;4993984;28;20042;-51
2022/04/07 04:03:28;;;;;;;12.50;4.47;;;;;;;7.64;100.00;97177.09;4995762;28;20034;-53
2022/04/07 04:05:53;;;;;;;7.15;4.50;;;;;;;7.64;100.00;97163.78;4987674;28;20066;-52
2022/04/07 04:08:19;;;;;;;9.75;5.25;;;;;;;7.68;100.00;97166.66;5003255;28;20095;-51
2022/04/07 04:10:44;;;;;;;8.63;4.55;;;;;;;7.67;100.00;97154.44;5001151;28;20045;-54
2022/04/07 04:13:09;;;;;;;8.80;4.32;;;;;;;7.60;100.00;97154.72;4992321;28;20041;-55
2022/04/07 04:15:35;;;;;;;6.25;4.30;;;;;;;7.56;100.00;97148.31;4992881;28;20460;-53
2022/04/07 04:18:01;;;;;;;8.27;4.35;;;;;;;7.54;100.00;97145.94;4998607;28;20034;-51
2022/04/07 04:20:26;;;;;;;6.13;3.83;;;;;;;7.62;100.00;97136.56;4990365;28;20047;-53
2022/04/07 04:22:52;;;;;;;12.90;5.03;;;;;;;7.69;99.84;97141.63;5000665;28;20018;-55
2022/04/07 04:25:17;;;;;;;9.25;4.55;;;;;;;7.68;99.86;97140.81;4996581;28;20037;-55
2022/04/07 04:27:43;;;;;;;7.93;4.20;;;;;;;7.61;100.00;97128.84;4989559;28;20318;-55
2022/04/07 04:30:09;;;;;;;8.93;5.07;;;;;;;7.61;100.00;97128.84;4994256;28;20041;-53
2022/04/07 04:32:35;;;;;;;10.32;4.85;;;;;;;7.71;99.07;97112.78;4988068;28;20205;-55
2022/04/07 04:35:00;;;;;;;7.70;3.15;;;;;;;7.67;99.16;97117.09;4993128;28;20034;-53
2022/04/07 04:37:26;;;;;;;7.22;4.28;;;;;;;7.64;99.46;97101.63;4995953;28;20497;-52
2022/04/07 04:39:53;;;;;;;10.55;4.63;;;;;;;7.68;99.06;97097.34;4995286;28;20029;-52
2022/04/07 04:42:19;;;;;;;7.47;4.22;;;;;;;7.66;99.19;97083.50;4994817;28;20046;-53
2022/04/07 04:44:45;;;;;;;9.55;5.13;;;;;;;7.69;98.83;97089.09;4989916;28;20033;-53
2022/04/07 04:47:11;;;;;;;8.00;4.57;;;;;;;7.68;99.03;97081.34;4989992;28;20046;-53
2022/04/07 04:49:40;;;;;;;8.38;5.20;;;;;;;7.63;99.93;97073.38;4993490;28;20197;-51
2022/04/07 04:52:06;;;;;;;8.48;5.05;;;;;;;7.57;100.00;97065.41;4996447;28;20042;-53
2022/04/07 04:54:32;;;;;;;11.00;4.90;;;;;;;7.58;100.00;97055.53;4995299;28;20369;-51
2022/04/07 04:56:58;;;;;;;8.52;4.88;;;;;;;7.61;100.00;97054.19;4998581;28;20093;-52
2022/04/07 04:59:23;;;;;;;14.32;5.45;;;;;;;7.59;100.00;97045.66;4991754;28;20500;-52
2022/04/07 05:01:49;;;;;;;9.82;4.78;;;;;;;7.59;100.00;97051.81;4988826;28;20046;-53
2022/04/07 05:04:14;;;;;;;17.67;9.10;;;;;;;7.59;100.00;97043.81;4999797;28;20037;-51
2022/04/07 05:06:39;;;;;;;18.02;7.78;;;;;;;7.56;100.00;97052.34;4995255;28;20042;-51
2022/04/07 05:09:05;;;;;;;9.98;5.50;;;;;;;7.53;100.00;97048.38;5000932;28;20022;-52
2022/04/07 05:11:30;;;;;;;18.65;5.07;;;;;;;7.54;100.00;97049.97;4996183;28;20038;-53
2022/04/07 05:13:56;;;;;;;9.48;4.95;;;;;;;7.56;100.00;97039.84;4988860;28;20030;-54
2022/04/07 05:16:21;;;;;;;9.13;5.25;;;;;;;7.57;100.00;97041.41;4998900;28;20042;-52
2022/04/07 05:18:48;;;;;;;7.28;4.30;;;;;;;7.65;100.00;97032.03;4989656;28;20042;-53
2022/04/07 05:21:14;;;;;;;6.88;3.97;;;;;;;7.65;100.00;97032.03;4994353;28;20054;-52
2022/04/07 05:23:40;;;;;;;7.68;4.40;;;;;;;7.72;99.00;97023.75;4994403;28;20105;-52
2022/04/07 05:26:05;;;;;;;7.53;3.92;;;;;;;7.71;98.91;97008.78;4994140;28;20042;-52
2022/04/07 05:28:31;;;;;;;7.78;3.65;;;;;;;7.76;98.04;97003.44;4988312;28;20038;-50
2022/04/07 05:30:56;;;;;;;6.68;3.45;;;;;;;7.81;97.23;96994.59;4987377;28;20096;-53
2022/04/07 05:33:22;;;;;;;4.43;3.08;;;;;;;7.82;96.85;96991.66;4992460;28;20030;-53
2022/04/07 05:35:47;;;;;;;6.70;3.78;;;;;;;7.85;96.81;96974.31;4993424;28;20397;-53
2022/04/07 05:38:13;;;;;;;6.75;4.85;;;;;;;7.86;96.35;96974.03;4991297;28;20041;-51
2022/04/07 05:40:38;;;;;;;7.55;3.97;;;;;;;7.81;96.57;96968.72;4994920;28;20046;-52
2022/04/07 05:43:04;;;;;;;11.85;4.07;;;;;;;7.81;96.97;96966.06;4991999;28;20049;-53
2022/04/07 05:45:30;;;;;;;11.00;4.53;;;;;;;7.80;97.03;96961.00;4988617;28;20067;-53
2022/04/07 05:47:55;;;;;;;8.45;4.80;;;;;;;7.94;95.52;96960.09;5000011;28;20100;-50
2022/04/07 05:50:20;;;;;;;7.93;3.58;;;;;;;7.97;94.83;96951.53;4997327;28;20050;-51
2022/04/07 05:52:46;;;;;;;11.80;3.53;;;;;;;8.04;94.41;96961.06;4992692;28;20059;-53
2022/04/07 05:55:11;;;;;;;8.13;4.40;;;;;;;7.98;95.03;96952.31;4991020;28;20433;-51
2022/04/07 05:57:37;;;;;;;6.20;3.15;;;;;;;7.88;96.07;96947.84;4998421;28;20052;-51
2022/04/07 06:00:12;;;;;;;11.23;4.55;;;;;;;7.87;96.93;96940.94;4993449;28;20034;-53
2022/04/07 06:02:38;;;;;;;5.22;3.45;;;;;;;7.86;97.78;96938.53;4987580;28;20065;-52
2022/04/07 06:05:08;;;;;;;4.50;2.95;;;;;;;7.77;98.53;96944.50;4988688;28;20042;-53
2022/04/07 06:07:33;;;;;;;6.57;2.87;;;;;;;7.67;100.00;96941.13;4988323;28;20173;-53
2022/04/07 06:09:59;;;;;;;8.50;2.60;;;;;;;7.64;100.00;96929.16;4988361;28;20054;-51
2022/04/07 06:12:24;;;;;;;6.30;3.30;;;;;;;7.62;100.00;96931.28;4997430;28;20065;-52
2022/04/07 06:14:50;;;;;;;4.85;2.90;;;;;;;7.68;100.00;96937.38;4998017;28;20337;-50
2022/04/07 06:17:15;;;;;;;4.85;2.80;;;;;;;7.72;100.00;96925.09;4995577;28;20042;-50
2022/04/07 06:19:41;;;;;;;7.22;3.00;;;;;;;7.80;99.76;96923.69;4995311;28;20034;-53
2022/04/07 06:22:07;;;;;;;4.65;2.60;;;;;;;7.82;99.22;96916.19;4995283;28;20038;-53
2022/04/07 06:24:33;;;;;;;4.63;2.72;;;;;;;7.88;98.44;96915.84;4987938;28;20038;-52
2022/04/07 06:26:59;;;;;;;6.72;3.70;;;;;;;7.88;98.81;96899.84;4991817;28;20092;-52
2022/04/07 06:29:25;;;;;;;7.30;3.17;;;;;;;7.77;99.77;96899.16;4998636;28;20305;-49
2022/04/07 06:31:50;;;;;;;6.32;2.55;;;;;;;7.77;99.90;96887.72;4994010;28;20206;-51
2022/04/07 06:34:15;;;;;;;4.15;2.70;;;;;;;7.86;99.34;96880.69;4996384;28;20037;-51
2022/04/07 06:36:41;;;;;;;6.72;2.58;;;;;;;7.93;99.11;96875.78;4987799;28;20061;-51
2022/04/07 06:39:06;;;;;;;2.92;1.90;;;;;;;7.96;97.90;96869.91;4998126;28;20036;-51
2022/04/07 06:41:32;;;;;;;4.88;2.88;;;;;;;7.96;97.94;96867.25;4989024;28;20053;-52
2022/04/07 06:43:57;;;;;;;6.85;3.33;;;;;;;8.02;97.35;96867.97;4996369;28;20037;-51
2022/04/07 06:46:23;;;;;;;3.38;2.30;;;;;;;8.06;96.03;96857.53;4987747;28;20069;-53
2022/04/07 06:48:48;;;;;;;7.47;1.90;;;;;;;8.08;95.92;96855.38;4991991;28;20034;-53
2022/04/07 06:51:14;;;;;;;3.25;1.70;;;;;;;7.98;96.41;96862.41;4990239;28;20038;-52
2022/04/07 06:53:39;;;;;;;2.72;1.48;;;;;;;8.05;95.23;96839.94;4994264;28;20092;-52
2022/04/07 06:56:05;;;;;;;5.07;1.67;;;;;;;8.03;95.07;96836.75;4988505;28;20473;-50
2022/04/07 06:58:30;;;;;;;3.97;2.03;;;;;;;8.13;95.00;96821.41;4989539;28;20033;-51
2022/04/07 07:00:56;;;;;;;3.60;1.70;;;;;;;8.19;94.59;96814.97;4988478;28;20065;-50
2022/04/07 07:03:22;;;;;;;4.05;2.03;;;;;;;8.17;94.37;96816.31;4989291;28;20027;-50
2022/04/07 07:05:47;;;;;;;3.00;1.90;;;;;;;8.20;94.30;96791.75;4995123;28;20455;-50
2022/04/07 07:08:20;;;;;;;6.55;1.50;;;;;;;8.16;93.77;96794.19;4991880;28;20038;-51
2022/04/07 07:10:46;;;;;;;12.18;5.57;;;;;;;8.24;93.96;96791.94;4993289;28;20038;-50
2022/04/07 07:13:13;;;;;;;4.18;2.08;;;;;;;8.25;94.09;96794.34;4993603;28;20062;-50
2022/04/07 07:15:39;;;;;;;3.30;1.70;;;;;;;8.19;95.08;96782.16;4990638;28;20374;-51
2022/04/07 07:18:04;;;;;;;4.95;2.33;;;;;;;8.27;94.57;96770.84;4987780;28;20041;-52
2022/04/07 07:20:30;;;;;;;2.67;1.60;;;;;;;8.26;95.29;96766.56;4991164;28;20038;-50
2022/04/07 07:22:55;;;;;;;2.08;1.35;;;;;;;8.26;96.02;96776.44;4993508;28;20046;-50
2022/04/07 07:25:21;;;;;;;2.25;1.50;;;;;;;8.35;96.07;96775.53;4987009;28;20413;-52
2022/04/07 07:27:46;;;;;;;1.90;1.25;;;;;;;8.30;96.28;96767.59;4990472;28;20093;-50
2022/04/07 07:30:15;;;;;;;1.70;1.33;;;;;;;8.36;96.92;96755.78;4990696;28;20046;-51
2022/04/07 07:32:41;;;;;;;2.88;1.63;;;;;;;8.37;97.49;96757.34;4987484;28;20711;-53
2022/04/07 07:35:07;;;;;;;3.55;1.60;;;;;;;8.37;97.69;96736.00;4990755;28;20034;-53
2022/04/07 07:37:33;;;;;;;5.53;1.50;;;;;;;8.38;97.65;96728.78;4985928;28;20515;-51
2022/04/07 07:40:06;;;;;;;4.72;1.38;;;;;;;8.26;98.09;96713.19;4992302;28;20069;-52
2022/04/07 07:42:31;;;;;;;2.90;1.45;;;;;;;8.27;98.49;96708.66;4991144;28;20180;-51
2022/04/07 07:44:57;;;;;;;2.63;1.17;;;;;;;8.28;98.74;96703.03;4993085;28;20523;-51
2022/04/07 07:47:22;;;;;;;2.38;1.40;;;;;;;8.33;99.22;96675.47;5001047;28;20125;-51
2022/04/07 07:49:47;;;;;;;1.75;1.20;;;;;;;8.37;98.86;96666.59;4994252;28;20031;-51
2022/04/07 07:52:13;;;;;;;1.20;1.15;;;;;;;8.51;98.55;96650.69;4987501;28;20054;-53
2022/04/07 07:54:38;;;;;;;2.00;1.10;;;;;;;8.82;97.04;96650.94;4990720;28;20031;-52
2022/04/07 07:57:04;;;;;;;1.35;1.20;;;;;;;8.91;97.03;96634.25;4997111;28;20057;-53
2022/04/07 07:59:29;;;;;;;1.67;1.27;;;;;;;8.81;96.45;96629.88;4997804;28;20048;-51
2022/04/07 08:01:54;;;;;;;2.88;1.40;;;;;;;8.87;96.90;96631.38;4997445;28;20503;-52
2022/04/07 08:04:20;;;;;;;1.02;0.90;;;;;;;9.01;96.80;96621.50;4996463;28;20044;-51
2022/04/07 08:06:45;;;;;;;2.28;1.05;;;;;;;8.93;97.71;96613.38;4993563;28;20062;-51
2022/04/07 08:09:13;;;;;;;1.33;1.23;;;;;;;8.96;98.48;96594.06;4994686;28;20031;-51
2022/04/07 08:11:39;;;;;;;2.10;1.23;;;;;;;8.97;98.29;96606.38;4998935;28;20046;-51
2022/04/07 08:14:05;;;;;;;1.20;1.10;;;;;;;8.99;99.65;96591.63;4995911;28;20030;-50
2022/04/07 08:16:30;;;;;;;1.35;1.00;;;;;;;9.15;98.43;96594.78;4996296;28;20045;-51
2022/04/07 08:18:56;;;;;;;2.30;0.98;;;;;;;9.21;98.41;96588.25;4995502;28;20492;-50
2022/04/07 08:21:22;;;;;;;0.80;0.80;;;;;;;9.40;97.02;96563.28;4995836;28;20489;-50
2022/04/07 08:23:47;;;;;;;1.92;0.82;;;;;;;9.47;96.40;96580.50;4994647;28;20040;-51
2022/04/07 08:26:13;;;;;;;4.75;1.25;;;;;;;9.49;95.95;96562.28;4987369;28;20054;-52
2022/04/07 08:28:39;;;;;;;1.90;0.95;;;;;;;9.71;95.78;96558.88;4993020;28;20597;-50
2022/04/07 08:31:04;;;;;;;1.38;0.90;;;;;;;9.72;94.82;96565.78;4994491;28;20050;-51
2022/04/07 08:33:30;;;;;;;0.82;0.82;;;;;;;9.86;94.32;96576.47;4989526;28;20366;-53
2022/04/07 08:35:55;;;;;;;3.78;1.92;;;;;;;10.09;93.47;96574.59;4994223;28;20419;-50
2022/04/07 08:38:21;;;;;;;1.17;1.10;;;;;;;10.20;93.08;96559.06;4995379;28;20396;-52
2022/04/07 08:40:49;;;;;;;1.00;0.98;;;;;;;10.06;93.56;96559.16;5000477;28;20113;-54
2022/04/07 08:43:14;;;;;;;1.95;0.98;;;;;;;10.29;93.05;96540.44;4994466;28;20500;-50
2022/04/07 08:45:41;;;;;;;1.35;1.00;;;;;;;10.43;91.95;96549.16;4992644;28;20046;-53
2022/04/07 08:48:07;;;;;;;2.05;1.00;;;;;;;10.87;90.48;96539.44;4988861;28;20449;-52
2022/04/07 08:50:33;;;;;;;1.00;1.00;;;;;;;10.82;91.75;96525.41;4978254;28;20042;-52
2022/04/07 08:52:58;;;;;;;0.90;0.90;;;;;;;10.90;91.50;96519.28;4987065;28;20038;-51
2022/04/07 08:55:24;;;;;;;1.83;0.80;;;;;;;10.84;91.48;96524.00;4994585;28;20045;-51
2022/04/07 08:57:49;;;;;;;0.95;0.90;;;;;;;10.88;90.73;96519.59;4996129;28;20037;-51
2022/04/07 09:00:15;;;;;;;4.60;1.10;;;;;;;11.00;91.58;96529.72;4992026;28;20035;-52
2022/04/07 09:02:41;;;;;;;1.85;0.75;;;;;;;11.28;89.60;96511.47;4987672;28;20034;-50
2022/04/07 09:05:09;;;;;;;2.88;0.77;;;;;;;11.30;89.04;96449.50;4987605;28;20035;-51
2022/04/07 09:07:35;;;;;;;0.80;0.80;;;;;;;11.22;88.13;96531.50;4993023;28;20388;-50
2022/04/07 09:10:02;;;;;;;1.10;1.00;;;;;;;11.12;89.87;96519.19;4997032;28;20046;-50
2022/04/07 09:12:27;;;;;;;1.10;0.98;;;;;;;11.09;90.18;96487.66;4996321;28;20129;-50
2022/04/07 09:14:59;;;;;;;1.50;1.08;;;;;;;11.01;90.62;96524.06;4998007;28;20480;-50
2022/04/07 09:17:26;;;;;;;1.25;1.05;;;;;;;10.74;90.58;96478.72;5001637;28;20131;-51
2022/04/07 09:19:51;;;;;;;1.60;0.88;;;;;;;11.31;88.72;96500.16;4995163;28;20026;-51
2022/04/07 09:22:17;;;;;;;0.98;0.98;;;;;;;11.62;87.71;96488.50;4995182;28;20045;-52
2022/04/07 09:24:42;;;;;;;3.53;1.55;;;;;;;11.73;86.63;96468.31;4994944;28;20869;-51
2022/04/07 09:27:09;;;;;;;1.52;1.08;;;;;;;11.43;88.53;96460.09;4994051;28;20054;-51
2022/04/07 09:29:45;;;;;;;2.92;1.30;;;;;;;11.64;88.02;96464.84;4994762;28;20045;-50
2022/04/07 09:32:24;;;;;;;1.17;1.10;;;;;;;11.72;88.48;96469.41;4996482;28;20099;-51
2022/04/07 09:34:53;;;;;;;1.17;1.00;;;;;;;11.53;88.74;96463.56;4996254;28;20027;-51
2022/04/07 09:37:24;;;;;;;3.75;1.02;;;;;;;11.73;87.10;96449.53;4993582;28;20042;-52
2022/04/07 09:39:50;;;;;;;0.77;0.77;;;;;;;12.12;86.08;96447.72;4994730;28;20487;-52
2022/04/07 09:42:20;;;;;;;1.10;1.00;;;;;;;12.02;87.09;96431.97;4993196;28;20162;-52
2022/04/07 09:44:56;;;;;;;1.10;0.90;;;;;;;11.71;86.91;96448.25;4994154;28;20586;-52
2022/04/07 09:47:21;;;;;;;1.58;1.13;;;;;;;12.25;85.75;96440.59;4987844;28;20045;-53
2022/04/07 09:49:48;;;;;;;1.35;0.90;;;;;;;12.42;85.11;96429.00;4994733;28;20030;-52
2022/04/07 09:52:13;;;;;;;0.73;0.73;;;;;;;12.70;83.67;96427.47;4995215;28;20512;-50
2022/04/07 09:54:42;;;;;;;0.82;0.82;;;;;;;12.56;84.07;96420.75;4989210;28;20046;-51
2022/04/07 09:57:09;;;;;;;6.07;1.20;;;;;;;12.65;83.02;96419.56;4994225;28;21331;-52
2022/04/07 09:59:36;;;;;;;1.20;0.95;;;;;;;12.67;81.96;96420.03;4989178;28;20376;-53
2022/04/07 10:02:01;;;;;;;0.90;0.90;;;;;;;12.41;84.06;96428.22;4993013;28;20444;-53
2022/04/07 10:04:28;;;;;;;6.28;0.90;;;;;;;12.33;83.77;96431.72;4987982;28;20057;-52
2022/04/07 10:06:55;;;;;;;0.95;0.95;;;;;;;11.93;85.24;96412.41;4981325;28;20121;-53
2022/04/07 10:09:20;;;;;;;3.05;1.00;;;;;;;12.14;86.39;96424.03;4992906;28;20045;-51
2022/04/07 10:11:46;;;;;;;1.45;1.13;;;;;;;11.84;87.30;96405.13;4989084;28;20046;-51
2022/04/07 10:14:11;;;;;;;2.25;1.10;;;;;;;11.72;87.68;96393.50;4983857;28;20424;-50
2022/04/07 10:16:36;;;;;;;1.33;1.10;;;;;;;11.76;88.60;96387.16;4979477;28;20043;-50
2022/04/07 10:19:14;;;;;;;1.00;1.00;;;;;;;11.50;90.51;96387.19;4989230;28;20042;-50
2022/04/07 10:21:58;;;;;;;1.35;1.20;;;;;;;11.54;91.88;96387.38;4993458;28;20043;-50
2022/04/07 10:24:30;;;;;;;1.42;1.15;;;;;;;11.35;91.58;96371.59;4994472;28;20961;-53
2022/04/07 10:26:55;;;;;;;1.27;1.17;;;;;;;11.27;92.71;96377.75;4989698;28;20097;-51
2022/04/07 10:29:24;;;;;;;1.40;1.30;;;;;;;11.68;91.43;96368.41;4978005;28;20046;-50
2022/04/07 10:32:12;;;;;;;2.00;1.33;;;;;;;12.16;88.84;96370.03;4992405;28;20054;-53
2022/04/07 10:34:42;;;;;;;2.60;1.17;;;;;;;11.81;89.08;96352.13;4982485;28;20484;-55
2022/04/07 10:37:11;;;;;;;1.10;0.82;;;;;;;11.93;88.94;96343.44;4996224;28;20073;-53
2022/04/07 10:39:41;;;;;;;2.13;1.25;;;;;;;12.48;87.07;96347.91;4995178;28;20034;-55
2022/04/07 10:42:06;;;;;;;1.33;1.13;;;;;;;12.25;88.00;96350.06;4987535;28;20042;-55
2022/04/07 10:44:32;;;;;;;1.15;1.05;;;;;;;12.18;88.84;96330.19;4990999;28;20089;-51
2022/04/07 10:47:02;;;;;;;1.23;1.00;;;;;;;12.70;88.11;96337.97;4966827;28;20042;-52
2022/04/07 10:49:28;;;;;;;;;;;;;;;12.83;86.18;96328.09;4996716;28;20032;-51
2022/04/07 10:51:54;;;;;;;1.50;1.00;;;;;;;12.51;86.86;96351.84;4972869;28;19929;-53
2022/04/07 10:54:21;;;;;;;1.27;0.93;;;;;;;12.39;86.88;96325.69;4991129;28;20060;-52
2022/04/07 10:56:59;;;;;;;1.02;0.98;;;;;;;12.31;89.25;96321.16;4987037;28;20034;-52
2022/04/07 10:59:24;;;;;;;1.02;1.00;;;;;;;12.06;89.72;96341.66;4994924;28;20113;-55
2022/04/07 11:01:52;;;;;;;1.90;1.10;;;;;;;11.76;90.79;96343.47;4989960;28;20149;-52
2022/04/07 11:04:18;;;;;;;4.68;1.10;;;;;;;11.61;91.00;96345.53;4987213;28;20037;-53
2022/04/07 11:07:02;;;;;;;1.02;0.93;;;;;;;11.52;91.36;96331.34;4992177;28;20050;-52
2022/04/07 11:09:55;;;;;;;5.75;1.20;;;;;;;11.46;92.47;96338.00;4995707;28;20096;-52
2022/04/07 11:12:33;;;;;;;1.45;1.13;;;;;;;11.59;92.17;96323.59;4995689;28;20088;-52
2022/04/07 11:15:01;;;;;;;2.47;1.20;;;;;;;11.41;91.90;96338.94;4985893;28;20027;-51
2022/04/07 11:17:47;;;;;;;1.65;1.08;;;;;;;11.97;90.86;96335.50;4992888;28;20104;-49
2022/04/07 11:20:22;;;;;;;3.47;1.33;;;;;;;12.30;89.57;96339.16;4991025;28;20030;-52
2022/04/07 11:23:12;;;;;;;2.13;1.23;;;;;;;12.20;90.12;96342.19;4992277;28;20290;-51
2022/04/07 11:25:41;;;;;;;2.08;0.80;;;;;;;12.02;88.88;96336.13;4990524;28;20100;-49
2022/04/07 11:28:14;;;;;;;2.77;1.40;;;;;;;11.64;92.94;96352.94;4989199;28;20453;-55
2022/04/07 11:30:49;;;;;;;1.38;1.10;;;;;;;11.32;93.82;96354.25;4991679;28;20280;-55
2022/04/07 11:33:29;;;;;;;5.00;1.80;;;;;;;10.95;96.49;96363.72;4998546;28;20608;-53